createdAt,value
2023-05-25T00:00:15.839Z,608.00
2023-05-25T00:02:44.818Z,615.58
2023-05-25T00:05:14.329Z,603.95
2023-05-25T00:07:43.044Z,594.35
2023-05-25T00:10:13.728Z,615.45
2023-05-25T00:12:42.276Z,621.60
2023-05-25T00:15:11.719Z,607.78
2023-05-25T00:17:40.984Z,607.67
2023-05-25T00:20:10.891Z,602.70
2023-05-25T00:22:39.773Z,602.83
2023-05-25T00:25:09.058Z,590.72
2023-05-25T00:27:38.909Z,570.30
2023-05-25T00:30:08.733Z,582.45
2023-05-25T00:32:37.221Z,562.38
2023-05-25T00:35:06.300Z,562.25
2023-05-25T00:37:34.687Z,564.67
2023-05-25T00:40:04.127Z,598.42
2023-05-25T00:42:33.078Z,577.85
2023-05-25T00:45:03.422Z,551.08
2023-05-25T00:47:32.641Z,585.97
2023-05-25T00:50:01.425Z,597.58
2023-05-25T00:52:30.095Z,586.58
2023-05-25T00:55:02.103Z,591.30
2023-05-25T00:57:34.289Z,600.95
2023-05-25T01:00:10.707Z,580.28
2023-05-25T01:02:39.970Z,587.47
2023-05-25T01:05:09.589Z,592.60
2023-05-25T01:07:38.554Z,586.20
2023-05-25T01:10:08.048Z,613.88
2023-05-25T01:12:40.229Z,562.67
2023-05-25T01:15:11.649Z,612.40
2023-05-25T01:17:40.195Z,572.85
2023-05-25T01:20:11.625Z,586.15
2023-05-25T01:22:46.601Z,590.42
2023-05-25T01:25:21.737Z,572.38
2023-05-25T01:27:53.313Z,581.08
2023-05-25T01:30:22.759Z,573.60
2023-05-25T01:32:51.344Z,569.28
2023-05-25T01:35:21.252Z,584.45
2023-05-25T01:37:53.839Z,604.53
2023-05-25T01:40:22.324Z,601.20
2023-05-25T01:42:50.756Z,581.25
2023-05-25T01:45:19.243Z,587.75
2023-05-25T01:47:55.019Z,626.45
2023-05-25T01:50:27.911Z,605.90
2023-05-25T01:53:03.696Z,610.13
2023-05-25T01:55:35.978Z,600.97
2023-05-25T01:58:04.641Z,596.28
2023-05-25T02:00:33.139Z,580.72
2023-05-25T02:03:02.355Z,574.00
2023-05-25T02:05:30.958Z,583.58
2023-05-25T02:08:00.936Z,593.50
2023-05-25T02:10:29.397Z,579.15
2023-05-25T02:12:57.807Z,574.45
2023-05-25T02:15:26.445Z,595.92
2023-05-25T02:17:57.855Z,590.13
2023-05-25T02:20:26.418Z,579.65
2023-05-25T02:22:54.844Z,579.42
2023-05-25T02:25:24.613Z,582.15
2023-05-25T02:27:53.054Z,600.83
2023-05-25T02:30:21.752Z,572.67
2023-05-25T02:32:50.973Z,597.35
2023-05-25T02:35:19.507Z,558.90
2023-05-25T02:37:50.299Z,591.42
2023-05-25T02:40:19.650Z,591.05
2023-05-25T02:42:49.474Z,570.85
2023-05-25T02:45:18.119Z,622.45
2023-05-25T02:47:46.616Z,595.53
2023-05-25T02:50:15.143Z,611.75
2023-05-25T02:52:43.795Z,623.10
2023-05-25T02:55:13.587Z,621.30
2023-05-25T02:57:42.212Z,640.75
2023-05-25T03:00:13.219Z,647.55
2023-05-25T03:02:41.734Z,621.67
2023-05-25T03:05:10.361Z,651.30
2023-05-25T03:07:38.859Z,632.80
2023-05-25T03:10:07.937Z,637.42
2023-05-25T03:12:36.336Z,623.72
2023-05-25T03:15:05.299Z,634.33
2023-05-25T03:17:35.140Z,709.80
2023-05-25T03:20:04.169Z,623.00
2023-05-25T03:22:32.619Z,632.47
2023-05-25T03:25:01.036Z,614.97
2023-05-25T03:27:29.479Z,627.55
2023-05-25T03:29:57.888Z,619.80
2023-05-25T03:32:26.330Z,633.63
2023-05-25T03:34:56.134Z,586.83
2023-05-25T03:37:24.572Z,616.40
2023-05-25T03:39:52.959Z,625.53
2023-05-25T03:42:21.318Z,629.03
2023-05-25T03:44:49.835Z,638.28
2023-05-25T03:47:18.230Z,624.85
2023-05-25T03:49:46.662Z,631.92
2023-05-25T03:52:16.548Z,622.85
2023-05-25T03:54:44.976Z,630.83
2023-05-25T03:57:13.310Z,652.85
2023-05-25T03:59:41.700Z,633.88
2023-05-25T04:02:10.068Z,639.92
2023-05-25T04:04:41.698Z,644.70
2023-05-25T04:07:10.298Z,638.80
2023-05-25T04:09:40.139Z,624.80
2023-05-25T04:12:09.072Z,604.92
2023-05-25T04:14:37.533Z,592.00
2023-05-25T04:17:06.257Z,629.70
2023-05-25T04:19:34.671Z,606.42
2023-05-25T04:22:03.243Z,586.55
2023-05-25T04:24:32.645Z,611.05
2023-05-25T04:27:02.924Z,590.60
2023-05-25T04:29:32.022Z,586.42
2023-05-25T04:32:00.513Z,726.13
2023-05-25T04:34:29.638Z,538.85
2023-05-25T04:36:58.049Z,558.83
2023-05-25T04:39:26.493Z,600.00
2023-05-25T04:41:57.520Z,574.35
2023-05-25T04:44:29.865Z,603.25
2023-05-25T04:46:59.581Z,515.38
2023-05-25T04:49:28.047Z,544.78
2023-05-25T04:51:56.458Z,530.63
2023-05-25T04:54:25.357Z,499.63
2023-05-25T04:56:53.763Z,493.98
2023-05-25T04:59:22.187Z,504.67
2023-05-25T05:01:52.014Z,546.10
2023-05-25T05:04:20.495Z,527.75
2023-05-25T05:06:48.881Z,526.30
2023-05-25T05:09:17.589Z,565.10
2023-05-25T05:11:46.066Z,492.40
2023-05-25T05:14:14.972Z,497.35
2023-05-25T05:16:43.393Z,508.90
2023-05-25T05:19:13.238Z,512.55
2023-05-25T05:21:41.879Z,456.55
2023-05-25T05:24:10.285Z,507.08
2023-05-25T05:26:55.565Z,517.70
2023-05-25T05:29:26.806Z,509.58
2023-05-25T05:31:56.456Z,520.35
2023-05-25T05:34:26.477Z,575.80
2023-05-25T05:36:58.562Z,646.30
2023-05-25T05:39:28.244Z,644.88
2023-05-25T05:41:57.365Z,573.17
2023-05-25T05:44:29.088Z,537.70
2023-05-25T05:47:00.821Z,548.80
2023-05-25T05:49:31.722Z,612.65
2023-05-25T05:52:00.518Z,549.97
2023-05-25T05:54:29.069Z,534.10
2023-05-25T05:56:57.555Z,561.90
2023-05-25T05:59:26.731Z,605.70
2023-05-25T06:01:55.287Z,481.45
2023-05-25T06:04:25.574Z,518.70
2023-05-25T06:06:55.374Z,499.23
2023-05-25T06:09:23.813Z,488.10
2023-05-25T06:11:52.275Z,554.40
2023-05-25T06:14:20.734Z,496.63
2023-05-25T06:16:49.442Z,592.85
2023-05-25T06:19:17.858Z,650.67
2023-05-25T06:21:46.296Z,641.40
2023-05-25T06:24:16.878Z,611.58
2023-05-25T06:26:45.310Z,674.45
2023-05-25T06:29:16.694Z,559.00
2023-05-25T06:31:45.961Z,566.83
2023-05-25T06:34:14.574Z,606.88
2023-05-25T06:36:43.039Z,579.70
2023-05-25T06:39:11.534Z,607.03
2023-05-25T06:41:41.475Z,661.15
2023-05-25T06:44:09.842Z,578.45
2023-05-25T06:46:39.288Z,655.08
2023-05-25T06:49:07.708Z,596.05
2023-05-25T06:51:37.252Z,577.80
2023-05-25T06:54:07.536Z,569.88
2023-05-25T06:56:36.080Z,603.88
2023-05-25T06:59:05.978Z,557.85
2023-05-25T07:01:34.464Z,569.63
2023-05-25T07:04:03.099Z,589.28
2023-05-25T07:06:31.567Z,636.05
2023-05-25T07:09:00.117Z,603.60
2023-05-25T07:11:28.570Z,757.80
2023-05-25T07:13:57.089Z,582.80
2023-05-25T07:16:27.119Z,581.95
2023-05-25T07:18:55.962Z,589.30
2023-05-25T07:21:25.155Z,604.92
2023-05-25T07:23:53.869Z,657.40
2023-05-25T07:26:23.400Z,646.92
2023-05-25T07:28:51.781Z,560.60
2023-05-25T07:31:20.203Z,605.42
2023-05-25T07:33:50.038Z,610.33
2023-05-25T07:36:18.743Z,594.92
2023-05-25T07:38:47.585Z,612.80
2023-05-25T07:41:16.037Z,651.95
2023-05-25T07:43:44.489Z,578.83
2023-05-25T07:46:12.916Z,563.78
2023-05-25T07:48:41.285Z,690.35
2023-05-25T07:51:11.437Z,580.13
2023-05-25T07:53:39.977Z,577.45
2023-05-25T07:56:10.669Z,580.33
2023-05-25T07:58:39.276Z,716.30
2023-05-25T08:01:08.123Z,660.85
2023-05-25T08:03:48.847Z,759.88
2023-05-25T08:06:19.330Z,635.15
2023-05-25T08:08:47.719Z,629.30
2023-05-25T08:11:17.795Z,659.83
2023-05-25T08:13:46.145Z,669.78
2023-05-25T08:16:16.320Z,635.97
2023-05-25T08:18:46.727Z,764.00
2023-05-25T08:21:15.368Z,633.05
2023-05-25T08:23:45.180Z,635.13
2023-05-25T08:26:34.250Z,595.92
2023-05-25T08:29:02.536Z,646.33
2023-05-25T08:31:31.161Z,666.08
2023-05-25T08:33:59.632Z,612.15
2023-05-25T08:36:28.265Z,709.08
2023-05-25T08:38:57.966Z,633.97
2023-05-25T08:41:26.396Z,623.25
2023-05-25T08:43:54.918Z,645.20
2023-05-25T08:46:31.153Z,671.63
2023-05-25T08:49:05.145Z,700.13
2023-05-25T08:51:38.202Z,685.67
2023-05-25T08:54:13.827Z,645.70
2023-05-25T08:56:49.146Z,636.70
2023-05-25T08:59:26.531Z,671.13
2023-05-25T09:01:59.641Z,818.50
2023-05-25T09:04:28.488Z,657.92
2023-05-25T09:07:08.955Z,656.33
2023-05-25T09:09:40.597Z,678.05
2023-05-25T09:12:09.908Z,666.20
2023-05-25T09:14:45.346Z,686.92
2023-05-25T09:17:14.870Z,715.55
2023-05-25T09:19:43.524Z,695.67
2023-05-25T09:22:15.964Z,717.83
2023-05-25T09:24:46.905Z,674.30
2023-05-25T09:27:19.002Z,688.10
2023-05-25T09:29:53.785Z,750.20
2023-05-25T09:32:24.158Z,700.72
2023-05-25T09:34:53.538Z,685.83
2023-05-25T09:37:22.122Z,743.42
2023-05-25T09:39:53.108Z,816.63
2023-05-25T09:42:23.589Z,698.65
2023-05-25T09:44:52.094Z,827.05
2023-05-25T09:47:20.572Z,719.97
2023-05-25T09:49:50.562Z,778.97
2023-05-25T09:52:19.043Z,728.60
2023-05-25T09:54:48.478Z,723.60
2023-05-25T09:57:19.695Z,714.00
2023-05-25T09:59:48.396Z,723.28
2023-05-25T10:02:17.246Z,714.38
2023-05-25T10:04:46.518Z,771.75
2023-05-25T10:07:16.085Z,818.30
2023-05-25T10:09:46.761Z,773.58
2023-05-25T10:12:19.024Z,741.25
2023-05-25T10:14:48.083Z,780.95
2023-05-25T10:17:18.969Z,746.15
2023-05-25T10:19:53.985Z,771.15
2023-05-25T10:22:26.245Z,700.97
2023-05-25T10:24:57.149Z,731.92
2023-05-25T10:27:30.765Z,740.88
2023-05-25T10:30:00.343Z,799.08
2023-05-25T10:32:29.129Z,769.58
2023-05-25T10:34:59.016Z,711.95
2023-05-25T10:37:29.147Z,755.80
2023-05-25T10:39:59.026Z,831.13
2023-05-25T10:42:29.864Z,751.10
2023-05-25T10:44:58.836Z,752.95
2023-05-25T10:47:27.633Z,733.80
2023-05-25T10:49:58.011Z,769.55
2023-05-25T10:52:29.655Z,677.15
2023-05-25T10:54:59.299Z,714.15
2023-05-25T10:57:29.591Z,718.90
2023-05-25T11:00:06.692Z,751.97
2023-05-25T11:02:51.305Z,693.75
2023-05-25T11:05:34.166Z,678.63
2023-05-25T11:08:04.435Z,679.30
2023-05-25T11:10:53.946Z,681.17
2023-05-25T11:13:40.567Z,709.28
2023-05-25T11:16:14.165Z,699.45
2023-05-25T11:18:43.919Z,685.47
2023-05-25T11:21:16.628Z,739.25
2023-05-25T11:23:55.480Z,723.28
2023-05-25T11:26:24.222Z,727.85
2023-05-25T11:28:54.915Z,714.88
2023-05-25T11:31:30.148Z,795.70
2023-05-25T11:33:59.469Z,746.35
2023-05-25T11:36:28.035Z,755.15
2023-05-25T11:41:31.808Z,776.35
2023-05-25T11:44:05.529Z,765.40
2023-05-25T11:46:34.874Z,647.92
2023-05-25T11:49:03.531Z,697.65
2023-05-25T11:51:32.422Z,697.50
2023-05-25T11:54:00.770Z,706.17
2023-05-25T11:56:35.878Z,721.67
2023-05-25T11:59:09.313Z,717.53
2023-05-25T12:01:37.688Z,673.30
2023-05-25T12:04:10.965Z,751.67
2023-05-25T12:06:40.362Z,675.45
2023-05-25T12:09:13.317Z,667.25
2023-05-25T12:11:45.572Z,656.63
2023-05-25T12:14:15.512Z,703.53
2023-05-25T12:16:44.312Z,702.97
2023-05-25T12:19:13.287Z,650.05
2023-05-25T12:21:42.284Z,696.55
2023-05-25T12:24:13.037Z,721.50
2023-05-25T12:26:50.740Z,644.63
2023-05-25T12:29:20.662Z,675.15
2023-05-25T12:31:49.084Z,731.33
2023-05-25T12:34:18.788Z,654.38
2023-05-25T12:36:50.694Z,678.75
2023-05-25T12:39:22.573Z,729.13
2023-05-25T12:41:55.078Z,673.92
2023-05-25T12:44:27.692Z,756.63
2023-05-25T12:46:57.362Z,704.92
2023-05-25T12:49:31.006Z,684.70
2023-05-25T12:52:00.387Z,646.88
2023-05-25T12:54:41.209Z,669.67
2023-05-25T12:57:11.289Z,630.95
2023-05-25T12:59:41.892Z,665.92
2023-05-25T13:02:10.892Z,685.25
2023-05-25T13:04:41.367Z,671.72
2023-05-25T13:07:10.507Z,715.28
2023-05-25T13:09:39.154Z,689.90
2023-05-25T13:12:08.255Z,706.33
2023-05-25T13:14:36.909Z,731.65
2023-05-25T13:17:06.919Z,717.72
2023-05-25T13:19:35.288Z,751.83
2023-05-25T13:22:03.808Z,679.63
2023-05-25T13:24:32.633Z,671.67
2023-05-25T13:27:01.410Z,702.00
2023-05-25T13:29:29.794Z,661.75
2023-05-25T13:31:58.208Z,740.13
2023-05-25T13:34:27.985Z,692.30
2023-05-25T13:36:56.508Z,753.88
2023-05-25T13:39:24.892Z,716.60
2023-05-25T13:41:53.276Z,760.15
2023-05-25T13:44:21.670Z,740.65
2023-05-25T13:46:50.089Z,719.30
2023-05-25T13:49:19.595Z,703.83
2023-05-25T13:51:49.458Z,729.67
2023-05-25T13:54:18.700Z,718.88
2023-05-25T13:56:47.214Z,693.10
2023-05-25T13:59:15.710Z,719.75
2023-05-25T14:01:46.655Z,709.35
2023-05-25T14:04:16.069Z,717.35
2023-05-25T14:06:46.980Z,734.63
2023-05-25T14:09:17.174Z,766.50
2023-05-25T14:11:45.696Z,715.92
2023-05-25T14:14:30.052Z,803.90
2023-05-25T14:17:00.376Z,704.95
2023-05-25T14:19:28.990Z,721.35
2023-05-25T14:22:11.826Z,707.42
2023-05-25T14:24:42.209Z,673.92
2023-05-25T14:27:10.765Z,735.67
2023-05-25T14:29:39.329Z,743.88
2023-05-25T14:32:07.929Z,745.45
2023-05-25T14:34:36.313Z,688.45
2023-05-25T14:37:05.076Z,699.90
2023-05-25T14:39:33.445Z,825.97
2023-05-25T14:42:03.458Z,698.28
2023-05-25T14:44:31.936Z,691.42
2023-05-25T14:47:00.504Z,726.78
2023-05-25T14:49:29.088Z,689.65
2023-05-25T14:51:57.537Z,718.58
2023-05-25T14:54:26.487Z,769.90
2023-05-25T14:56:54.891Z,702.15
2023-05-25T14:59:24.682Z,722.13
2023-05-25T15:01:53.137Z,686.92
2023-05-25T15:04:21.842Z,775.85
2023-05-25T15:06:50.425Z,709.10
2023-05-25T15:09:19.601Z,724.33
2023-05-25T15:11:48.032Z,762.10
2023-05-25T15:14:16.732Z,702.67
2023-05-25T15:16:46.546Z,810.40
2023-05-25T15:19:17.415Z,725.72
2023-05-25T15:21:46.349Z,713.28
2023-05-25T15:24:16.746Z,764.35
2023-05-25T15:26:45.172Z,743.70
2023-05-25T15:29:13.567Z,747.10
2023-05-25T15:31:42.036Z,753.42
2023-05-25T15:34:12.672Z,764.97
2023-05-25T15:36:41.094Z,732.40
2023-05-25T15:39:11.445Z,718.83
2023-05-25T15:41:39.908Z,720.03
2023-05-25T15:44:12.578Z,692.05
2023-05-25T15:46:41.472Z,722.58
2023-05-25T15:49:11.907Z,752.28
2023-05-25T15:51:41.761Z,739.47
2023-05-25T15:54:13.462Z,681.08
2023-05-25T15:56:42.945Z,755.17
2023-05-25T15:59:12.342Z,785.80
2023-05-25T16:01:41.249Z,791.65
2023-05-25T16:04:11.131Z,763.88
2023-05-25T16:06:39.998Z,759.63
2023-05-25T16:09:08.454Z,750.33
2023-05-25T16:11:36.908Z,739.88
2023-05-25T16:14:05.347Z,725.65
2023-05-25T16:16:33.755Z,785.95
2023-05-25T16:19:02.182Z,900.65
2023-05-25T16:21:36.934Z,745.90
2023-05-25T16:24:06.127Z,865.75
2023-05-25T16:26:35.215Z,709.53
2023-05-25T16:29:03.642Z,775.85
2023-05-25T16:31:32.082Z,748.38
2023-05-25T16:34:00.863Z,792.22
2023-05-25T16:36:29.228Z,743.80
2023-05-25T16:38:58.940Z,749.42
2023-05-25T16:41:27.876Z,749.13
2023-05-25T16:43:56.295Z,775.10
2023-05-25T16:46:25.615Z,784.35
2023-05-25T16:48:54.026Z,741.60
2023-05-25T16:51:22.369Z,782.50
2023-05-25T16:53:52.431Z,754.45
2023-05-25T16:56:24.587Z,704.85
2023-05-25T16:58:52.997Z,744.38
2023-05-25T17:01:21.962Z,702.92
2023-05-25T17:03:50.907Z,738.70
2023-05-25T17:06:19.400Z,779.90
2023-05-25T17:08:48.428Z,718.50
2023-05-25T17:11:17.196Z,742.60
2023-05-25T17:13:47.297Z,715.53
2023-05-25T17:16:15.854Z,775.03
2023-05-25T17:18:44.308Z,785.75
2023-05-25T17:21:12.878Z,755.53
2023-05-25T17:23:42.092Z,732.90
2023-05-25T17:26:10.704Z,766.90
2023-05-25T17:28:39.307Z,763.03
2023-05-25T17:31:09.704Z,753.20
2023-05-25T17:33:38.890Z,785.22
2023-05-25T17:36:07.663Z,766.80
2023-05-25T17:38:38.192Z,781.97
2023-05-25T17:41:06.895Z,771.42
2023-05-25T17:43:35.325Z,790.30
2023-05-25T17:46:03.863Z,785.22
2023-05-25T17:48:33.944Z,779.92
2023-05-25T17:51:03.143Z,776.15
2023-05-25T17:53:31.569Z,824.97
2023-05-25T17:55:59.949Z,757.50
2023-05-25T17:58:28.327Z,789.65
2023-05-25T18:00:56.781Z,775.35
2023-05-25T18:03:25.864Z,774.25
2023-05-25T18:05:55.738Z,781.03
2023-05-25T18:08:24.124Z,765.70
2023-05-25T18:10:52.919Z,786.08
2023-05-25T18:13:21.326Z,787.78
2023-05-25T18:15:49.818Z,783.75
2023-05-25T18:18:20.762Z,777.65
2023-05-25T18:20:49.422Z,859.80
2023-05-25T18:23:19.339Z,784.63
2023-05-25T18:25:47.756Z,775.70
2023-05-25T18:28:16.278Z,801.22
2023-05-25T18:30:45.129Z,750.58
2023-05-25T18:33:13.646Z,783.78
2023-05-25T18:35:42.152Z,768.17
2023-05-25T18:38:10.859Z,762.45
2023-05-25T18:40:40.632Z,773.10
2023-05-25T18:43:09.091Z,775.13
2023-05-25T18:45:37.479Z,765.20
2023-05-25T18:48:08.193Z,807.22
2023-05-25T18:50:37.630Z,756.97
2023-05-25T18:53:07.728Z,872.17
2023-05-25T18:55:36.105Z,767.00
2023-05-25T18:58:06.461Z,767.65
2023-05-25T19:00:35.012Z,808.05
2023-05-25T19:03:03.541Z,755.58
2023-05-25T19:05:32.030Z,754.40
2023-05-25T19:08:00.690Z,746.25
2023-05-25T19:10:29.343Z,737.05
2023-05-25T19:12:58.518Z,722.63
2023-05-25T19:15:28.324Z,733.05
2023-05-25T19:17:56.742Z,746.53
2023-05-25T19:20:25.181Z,723.67
2023-05-25T19:22:53.717Z,735.28
2023-05-25T19:25:22.324Z,724.92
2023-05-25T19:27:51.577Z,723.90
2023-05-25T19:30:20.071Z,729.17
2023-05-25T19:32:49.788Z,714.15
2023-05-25T19:35:18.156Z,718.10
2023-05-25T19:37:46.506Z,717.97
2023-05-25T19:40:14.928Z,697.50
2023-05-25T19:42:43.312Z,717.67
2023-05-25T19:45:13.241Z,786.72
2023-05-25T19:47:41.715Z,721.53
2023-05-25T19:50:12.098Z,736.15
2023-05-25T19:52:40.919Z,744.20
2023-05-25T19:55:09.577Z,716.42
2023-05-25T19:57:38.462Z,747.08
2023-05-25T20:00:11.652Z,743.10
2023-05-25T20:02:49.605Z,708.33
2023-05-25T20:05:19.922Z,736.50
2023-05-25T20:07:50.261Z,714.40
2023-05-25T20:10:18.784Z,751.78
2023-05-25T20:12:47.183Z,711.08
2023-05-25T20:15:15.846Z,748.42
2023-05-25T20:17:44.358Z,725.67
2023-05-25T20:20:12.868Z,742.47
2023-05-25T20:22:42.830Z,753.55
2023-05-25T20:25:11.199Z,691.67
2023-05-25T20:27:39.697Z,704.22
2023-05-25T20:30:09.092Z,707.40
2023-05-25T20:32:37.490Z,734.22
2023-05-25T20:35:06.359Z,728.80
2023-05-25T20:37:34.758Z,747.97
2023-05-25T20:40:06.552Z,720.97
2023-05-25T20:42:35.005Z,726.13
2023-05-25T20:45:03.575Z,772.45
2023-05-25T20:47:31.964Z,719.88
2023-05-25T20:50:00.392Z,758.42
2023-05-25T20:52:28.759Z,711.15
2023-05-25T20:54:57.179Z,758.38
2023-05-25T20:57:27.010Z,703.58
2023-05-25T20:59:59.607Z,759.88
2023-05-25T21:02:28.712Z,753.00
2023-05-25T21:04:57.295Z,761.13
2023-05-25T21:07:25.707Z,746.88
2023-05-25T21:09:56.428Z,755.78
2023-05-25T21:12:26.361Z,756.55
2023-05-25T21:14:54.786Z,747.60
2023-05-25T21:17:23.169Z,755.30
2023-05-25T21:19:51.883Z,736.85
2023-05-25T21:22:20.528Z,743.17
2023-05-25T21:24:49.974Z,745.10
2023-05-25T21:27:18.527Z,771.22
2023-05-25T21:29:48.326Z,740.92
2023-05-25T21:32:16.710Z,737.13
2023-05-25T21:34:45.117Z,762.17
2023-05-25T21:37:13.504Z,727.17
2023-05-25T21:39:41.931Z,719.08
2023-05-25T21:42:11.171Z,737.08
2023-05-25T21:44:39.607Z,723.25
2023-05-25T21:47:09.431Z,727.97
2023-05-25T21:49:37.898Z,729.45
2023-05-25T21:52:06.571Z,726.67
2023-05-25T21:54:34.944Z,703.05
2023-05-25T21:57:03.810Z,721.03
2023-05-25T21:59:32.215Z,704.08
2023-05-25T22:02:00.739Z,701.30
2023-05-25T22:04:30.452Z,720.47
2023-05-25T22:06:58.977Z,706.63
2023-05-25T22:09:27.351Z,711.10
2023-05-25T22:11:55.775Z,689.65
2023-05-25T22:14:24.163Z,706.78
2023-05-25T22:16:52.933Z,698.70
2023-05-25T22:19:21.303Z,706.38
2023-05-25T22:21:53.360Z,664.83
2023-05-25T22:24:21.771Z,693.88
2023-05-25T22:26:50.196Z,693.45
2023-05-25T22:29:18.588Z,704.53
2023-05-25T22:31:46.993Z,696.47
2023-05-25T22:34:15.529Z,701.15
2023-05-25T22:36:43.854Z,734.50
2023-05-25T22:39:13.557Z,754.60
2023-05-25T22:41:42.655Z,726.55
2023-05-25T22:44:11.063Z,726.53
2023-05-25T22:46:39.540Z,725.33
2023-05-25T22:49:07.979Z,698.03
2023-05-25T22:51:36.642Z,720.17
2023-05-25T22:54:05.071Z,721.97
2023-05-25T22:56:36.124Z,735.03
2023-05-25T22:59:04.511Z,729.13
2023-05-25T23:01:33.061Z,723.25
2023-05-25T23:04:01.759Z,718.92
2023-05-25T23:06:30.407Z,732.38
2023-05-25T23:08:58.848Z,742.83
2023-05-25T23:11:27.370Z,734.80
2023-05-25T23:13:57.060Z,745.28
2023-05-25T23:16:26.767Z,735.40
2023-05-25T23:18:55.298Z,738.47
2023-05-25T23:21:23.751Z,735.17
2023-05-25T23:23:52.487Z,726.70
2023-05-25T23:26:20.984Z,730.38
2023-05-25T23:28:49.529Z,720.90
2023-05-25T23:31:19.431Z,731.70
2023-05-25T23:33:47.898Z,747.00
2023-05-25T23:36:16.428Z,725.90
2023-05-25T23:38:44.836Z,725.33
2023-05-25T23:41:13.336Z,718.50
2023-05-25T23:43:41.715Z,713.90
2023-05-25T23:46:10.185Z,716.10
2023-05-25T23:48:39.978Z,712.85
2023-05-25T23:51:08.403Z,696.58
2023-05-25T23:53:36.892Z,716.25
2023-05-25T23:56:05.401Z,678.25
2023-05-25T23:58:33.813Z,674.03
